Flight Number: EUR1336 Duration: 1:15
Departure: Stavanger (ENZV) at 14:00 Distance: 348 Nm
Arrival: Hamburg Fuhlsbuettel (EDDH) at 15:15 Equipment: B737

Weather Information
Stavanger / Sola, Norway (ENZV) 58-53N 005-38E 9M Oct 19, 2018 - 01:50 PM EDT / 2018.10.19 1750 UTC
Wind: from the SSW (200 degrees) at 8 MPH (7 KT):0
Visibility: greater than 7 mile(s):0
Sky conditions: mostly cloudy Weather: showers in the vicinity Temperature: 50 F (10 C) Dew Point: 46 F (8 C) Relative Humidity: 87% Pressure (altimeter): 30.12 in. Hg (1020 hPa)
ob: ENZV 191750Z 20007KT 9999 VCSH SCT013 BKN022 10/08 Q1020 TEMPO 4000 RA BR BKN012 cycle: 18
Sunrise: 06:29 Sunset: 16:14 (UTC)

Hamburg-Fuhlsbuettel, Germany (EDDH) 53-38N 010-00E 15M Oct 19, 2018 - 01:50 PM EDT / 2018.10.19 1750 UTC
Wind: Variable at 2 MPH (2 KT):0
Visibility: greater than 7 mile(s):0
Sky conditions: mostly clear Temperature: 44 F (7 C) Dew Point: 41 F (5 C) Relative Humidity: 87% Pressure (altimeter): 30.30 in. Hg (1026 hPa)
ob: EDDH 191750Z VRB02KT 9999 FEW037 07/05 Q1026 NOSIG cycle: 18
Sunrise: 05:59 Sunset: 16:10 (UTC)

TAF:2018/10/19 18:27 TAF EDDH 191700Z 1918/2024 VRB03KT 9999 SCT040 TEMPO 1922/2008 2500 BR BECMG 2006/2009 25007KT BECMG 2017/2020 VRB03KT TEMPO 2022/2024 2000 BCFG

Previous Pireps for this route
Date Aircraft Flight time Fuel used Landing rate On time
2013-08-04B73701.177700-784No
2014-01-02B73701.188671-405Yes
2014-08-05B73701.267629-231No
2015-04-18B73701.217598-50No
2016-03-20B73701.156417-845Yes
2016-06-24B73701.247485-568No
(pireps marked green are flown by you)

Route map